createdAt,value
2019-04-27T00:00:24.202Z,77.35
2019-04-27T00:01:24.161Z,77.86
2019-04-27T00:02:26.511Z,77.45
2019-04-27T00:03:24.139Z,77.39
2019-04-27T00:04:25.378Z,78.20
2019-04-27T00:05:26.618Z,78.31
2019-04-27T00:06:25.136Z,78.00
2019-04-27T00:07:24.225Z,78.00
2019-04-27T00:08:24.106Z,77.39
2019-04-27T00:09:24.077Z,77.90
2019-04-27T00:10:25.347Z,77.59
2019-04-27T00:11:24.051Z,77.63
2019-04-27T00:12:26.390Z,78.00
2019-04-27T00:13:24.045Z,77.73
2019-04-27T00:14:24.035Z,78.04
2019-04-27T00:15:24.686Z,77.94
2019-04-27T00:16:24.998Z,78.34
2019-04-27T00:17:42.475Z,78.45
2019-04-27T00:18:25.000Z,77.94
2019-04-27T00:19:27.287Z,77.73
2019-04-27T00:20:24.953Z,78.34
2019-04-27T00:21:23.957Z,78.04
2019-04-27T00:22:23.938Z,78.24
2019-04-27T00:23:23.920Z,78.45
2019-04-27T00:24:23.920Z,78.34
2019-04-27T00:25:26.898Z,78.24
2019-04-27T00:26:23.884Z,78.20
2019-04-27T00:27:23.897Z,78.24
2019-04-27T00:28:23.864Z,78.14
2019-04-27T00:29:25.822Z,78.14
2019-04-27T00:30:23.846Z,78.45
2019-04-27T00:31:23.831Z,78.14
2019-04-27T00:32:23.818Z,78.45
2019-04-27T00:33:23.930Z,78.86
2019-04-27T00:34:23.796Z,78.65
2019-04-27T00:35:23.788Z,78.86
2019-04-27T00:36:23.790Z,78.96
2019-04-27T00:37:23.829Z,78.65
2019-04-27T00:38:23.755Z,78.96
2019-04-27T00:39:23.764Z,79.06
2019-04-27T00:40:23.730Z,79.06
2019-04-27T00:41:24.291Z,79.20
2019-04-27T00:42:23.725Z,79.16
2019-04-27T00:43:23.700Z,79.30
2019-04-27T00:44:23.799Z,79.27
2019-04-27T00:45:23.692Z,79.30
2019-04-27T00:46:23.664Z,79.30
2019-04-27T00:47:24.001Z,79.61
2019-04-27T00:48:23.657Z,79.50
2019-04-27T00:49:23.944Z,79.41
2019-04-27T00:50:23.633Z,79.30
2019-04-27T00:51:23.609Z,79.82
2019-04-27T00:52:24.016Z,79.30
2019-04-27T00:53:23.605Z,79.30
2019-04-27T00:54:23.872Z,79.30
2019-04-27T00:55:23.582Z,79.82
2019-04-27T00:56:25.213Z,79.30
2019-04-27T00:57:24.535Z,79.20
2019-04-27T00:58:23.533Z,79.30
2019-04-27T00:59:23.905Z,79.71
2019-04-27T01:00:23.615Z,79.85
2019-04-27T01:01:23.526Z,79.75
2019-04-27T01:02:23.493Z,79.85
2019-04-27T01:03:23.486Z,80.02
2019-04-27T01:04:23.758Z,79.30
2019-04-27T01:05:23.458Z,79.82
2019-04-27T01:06:23.466Z,79.82
2019-04-27T01:07:25.014Z,79.30
2019-04-27T01:08:23.433Z,79.00
2019-04-27T01:09:23.725Z,79.61
2019-04-27T01:10:23.448Z,78.89
2019-04-27T01:11:24.951Z,79.10
2019-04-27T01:12:23.760Z,79.10
2019-04-27T01:13:23.407Z,79.03
2019-04-27T01:14:23.360Z,79.10
2019-04-27T01:15:23.768Z,78.89
2019-04-27T01:16:24.169Z,79.13
2019-04-27T01:17:23.324Z,79.00
2019-04-27T01:18:23.321Z,79.20
2019-04-27T01:19:23.332Z,79.50
2019-04-27T01:20:23.304Z,79.20
2019-04-27T01:21:23.289Z,79.00
2019-04-27T01:22:23.267Z,79.13
2019-04-27T01:23:23.260Z,79.13
2019-04-27T01:24:23.249Z,79.10
2019-04-27T01:25:23.295Z,79.54
2019-04-27T01:26:23.224Z,79.24
2019-04-27T01:27:23.218Z,79.24
2019-04-27T01:28:23.202Z,79.24
2019-04-27T01:29:23.193Z,79.03
2019-04-27T01:30:23.181Z,79.24
2019-04-27T01:31:23.194Z,79.96
2019-04-27T01:32:23.175Z,79.64
2019-04-27T01:33:23.147Z,79.75
2019-04-27T01:34:23.139Z,80.16
2019-04-27T01:35:23.124Z,80.16
2019-04-27T01:36:23.114Z,79.89
2019-04-27T01:37:23.116Z,79.85
2019-04-27T01:38:23.101Z,80.19
2019-04-27T01:39:23.082Z,79.85
2019-04-27T01:40:23.076Z,79.89
2019-04-27T01:41:23.059Z,80.30
2019-04-27T01:42:23.051Z,79.58
2019-04-27T01:43:23.048Z,79.64
2019-04-27T01:44:23.060Z,79.89
2019-04-27T01:45:23.015Z,80.16
2019-04-27T01:46:23.007Z,79.54
2019-04-27T01:47:22.995Z,79.27
2019-04-27T01:48:25.791Z,79.27
2019-04-27T01:49:22.971Z,79.27
2019-04-27T01:50:22.995Z,79.58
2019-04-27T01:51:22.951Z,79.27
2019-04-27T01:52:22.940Z,79.58
2019-04-27T01:53:22.930Z,79.27
2019-04-27T01:54:22.917Z,79.17
2019-04-27T01:55:22.922Z,79.07
2019-04-27T01:56:22.901Z,79.27
2019-04-27T01:57:22.904Z,79.24
2019-04-27T01:58:22.876Z,79.38
2019-04-27T01:59:22.868Z,79.48
2019-04-27T02:00:22.851Z,79.58
2019-04-27T02:01:22.859Z,79.07
2019-04-27T02:02:22.851Z,79.24
2019-04-27T02:03:22.820Z,79.07
2019-04-27T02:04:22.809Z,79.27
2019-04-27T02:05:22.797Z,79.48
2019-04-27T02:06:22.787Z,79.27
2019-04-27T02:07:22.789Z,79.38
2019-04-27T02:08:22.776Z,79.48
2019-04-27T02:09:22.757Z,79.68
2019-04-27T02:10:22.745Z,79.27
2019-04-27T02:11:22.730Z,79.38
2019-04-27T02:12:22.721Z,79.72
2019-04-27T02:13:22.723Z,79.93
2019-04-27T02:14:22.712Z,80.03
2019-04-27T02:15:22.688Z,79.99
2019-04-27T02:16:22.676Z,79.93
2019-04-27T02:17:22.665Z,79.58
2019-04-27T02:18:34.616Z,79.93
2019-04-27T02:19:23.644Z,80.40
2019-04-27T02:20:22.640Z,79.82
2019-04-27T02:21:22.624Z,80.33
2019-04-27T02:22:22.613Z,80.54
2019-04-27T02:23:22.597Z,79.93
2019-04-27T02:24:22.600Z,79.93
2019-04-27T02:25:22.590Z,80.03
2019-04-27T02:26:22.575Z,80.23
2019-04-27T02:27:22.554Z,80.13
2019-04-27T02:28:22.549Z,79.89
2019-04-27T02:29:22.533Z,80.23
2019-04-27T02:30:22.521Z,79.48
2019-04-27T02:31:22.534Z,79.58
2019-04-27T02:32:22.509Z,79.41
2019-04-27T02:33:22.488Z,79.93
2019-04-27T02:34:22.479Z,79.89
2019-04-27T02:35:22.470Z,79.41
2019-04-27T02:36:22.459Z,80.23
2019-04-27T02:37:22.468Z,80.23
2019-04-27T02:38:22.441Z,79.52
2019-04-27T02:39:22.425Z,79.31
2019-04-27T02:40:22.414Z,79.82
2019-04-27T02:41:22.403Z,79.72
2019-04-27T02:42:22.391Z,79.27
2019-04-27T02:43:22.404Z,79.17
2019-04-27T02:44:22.380Z,79.41
2019-04-27T02:45:22.390Z,79.58
2019-04-27T02:46:22.351Z,79.11
2019-04-27T02:47:22.341Z,78.76
2019-04-27T02:48:22.342Z,78.80
2019-04-27T02:49:22.324Z,78.76
2019-04-27T02:50:22.336Z,78.25
2019-04-27T02:51:22.300Z,78.56
2019-04-27T02:52:22.285Z,78.45
2019-04-27T02:53:22.273Z,77.94
2019-04-27T02:54:22.258Z,78.25
2019-04-27T02:55:22.249Z,78.86
2019-04-27T02:56:22.270Z,79.17
2019-04-27T02:57:22.228Z,78.45
2019-04-27T02:58:22.218Z,78.56
2019-04-27T02:59:22.204Z,78.25
2019-04-27T03:00:22.195Z,78.35
2019-04-27T03:01:22.184Z,78.15
2019-04-27T03:02:22.206Z,77.94
2019-04-27T03:03:22.164Z,78.15
2019-04-27T03:04:22.149Z,78.05
2019-04-27T03:05:22.148Z,78.35
2019-04-27T03:06:22.128Z,78.86
2019-04-27T03:07:22.116Z,78.56
2019-04-27T03:08:22.138Z,78.76
2019-04-27T03:09:22.097Z,78.35
2019-04-27T03:10:22.084Z,78.35
2019-04-27T03:11:23.496Z,78.05
2019-04-27T03:12:22.065Z,78.35
2019-04-27T03:13:22.053Z,78.25
2019-04-27T03:14:34.925Z,78.56
2019-04-27T03:15:23.645Z,79.00
2019-04-27T03:16:22.017Z,78.35
2019-04-27T03:17:22.699Z,78.66
2019-04-27T03:18:21.994Z,78.49
2019-04-27T03:19:22.195Z,78.45
2019-04-27T03:20:21.993Z,78.76
2019-04-27T03:21:21.960Z,79.62
2019-04-27T03:22:21.955Z,79.31
2019-04-27T03:23:21.947Z,79.07
2019-04-27T03:24:23.043Z,79.00
2019-04-27T03:25:21.935Z,79.21
2019-04-27T03:26:21.944Z,79.21
2019-04-27T03:27:21.908Z,79.31
2019-04-27T03:28:21.885Z,78.80
2019-04-27T03:29:22.988Z,78.90
2019-04-27T03:30:23.493Z,78.80
2019-04-27T03:31:21.997Z,78.90
2019-04-27T03:32:23.242Z,78.90
2019-04-27T03:33:22.726Z,78.80
2019-04-27T03:34:22.665Z,78.70
2019-04-27T03:35:23.031Z,78.80
2019-04-27T03:36:21.944Z,78.80
2019-04-27T03:37:21.817Z,79.00
2019-04-27T03:38:21.779Z,79.11
2019-04-27T03:39:21.761Z,79.21
2019-04-27T03:40:21.758Z,78.90
2019-04-27T03:41:21.742Z,78.90
2019-04-27T03:42:21.760Z,78.90
2019-04-27T03:43:21.736Z,79.41
2019-04-27T03:44:21.709Z,79.52
2019-04-27T03:45:21.700Z,79.11
2019-04-27T03:46:21.689Z,79.11
2019-04-27T03:47:21.675Z,79.21
2019-04-27T03:48:21.714Z,79.11
2019-04-27T03:49:35.047Z,79.31
2019-04-27T03:50:22.638Z,79.21
2019-04-27T03:51:21.631Z,79.11
2019-04-27T03:52:21.620Z,79.31
2019-04-27T03:53:23.171Z,79.62
2019-04-27T03:54:22.226Z,79.31
2019-04-27T03:55:21.594Z,79.21
2019-04-27T03:56:21.578Z,79.11
2019-04-27T03:57:21.567Z,79.41
2019-04-27T03:58:21.872Z,79.31
2019-04-27T03:59:21.561Z,79.35
2019-04-27T04:00:21.533Z,80.17
2019-04-27T04:01:21.539Z,80.07
2019-04-27T04:02:21.506Z,80.47
2019-04-27T04:03:21.528Z,79.75
2019-04-27T04:04:21.486Z,79.86
2019-04-27T04:05:21.496Z,79.96
2019-04-27T04:06:21.472Z,79.96
2019-04-27T04:07:21.462Z,80.17
2019-04-27T04:08:21.442Z,80.27
2019-04-27T04:09:21.430Z,80.27
2019-04-27T04:10:21.421Z,80.37
2019-04-27T04:11:21.434Z,80.07
2019-04-27T04:12:21.402Z,79.96
2019-04-27T04:13:22.618Z,79.86
2019-04-27T04:14:21.398Z,79.86
2019-04-27T04:15:21.366Z,79.96
2019-04-27T04:16:21.357Z,80.27
2019-04-27T04:17:21.360Z,80.27
2019-04-27T04:18:21.333Z,80.21
2019-04-27T04:19:21.338Z,80.68
2019-04-27T04:20:21.322Z,80.47
2019-04-27T04:21:21.296Z,81.20
2019-04-27T04:22:21.287Z,80.47
2019-04-27T04:23:21.293Z,80.37
2019-04-27T04:24:21.266Z,80.47
2019-04-27T04:25:21.260Z,80.37
2019-04-27T04:26:21.255Z,80.47
2019-04-27T04:27:21.234Z,80.33
2019-04-27T04:28:21.223Z,79.96
2019-04-27T04:29:21.238Z,79.66
2019-04-27T04:30:21.213Z,80.03
2019-04-27T04:31:21.217Z,80.58
2019-04-27T04:32:21.183Z,80.13
2019-04-27T04:33:21.167Z,80.33
2019-04-27T04:34:21.157Z,80.13
2019-04-27T04:35:21.671Z,79.93
2019-04-27T04:36:21.145Z,79.96
2019-04-27T04:37:21.124Z,79.72
2019-04-27T04:38:21.126Z,79.86
2019-04-27T04:39:21.107Z,80.58
2019-04-27T04:40:23.147Z,80.27
2019-04-27T04:41:21.077Z,80.68
2019-04-27T04:42:21.078Z,80.27
2019-04-27T04:43:21.055Z,80.33
2019-04-27T04:44:21.072Z,80.95
2019-04-27T04:45:21.040Z,80.88
2019-04-27T04:46:23.006Z,80.68
2019-04-27T04:47:21.020Z,80.47
2019-04-27T04:48:21.017Z,80.85
2019-04-27T04:49:20.991Z,81.05
2019-04-27T04:50:22.778Z,80.13
2019-04-27T04:51:20.969Z,79.72
2019-04-27T04:52:20.956Z,80.64
2019-04-27T04:53:20.975Z,80.33
2019-04-27T04:54:24.381Z,79.82
2019-04-27T04:55:20.938Z,79.72
2019-04-27T04:56:20.929Z,80.13
2019-04-27T04:57:21.883Z,79.99
2019-04-27T04:58:21.250Z,80.13
2019-04-27T04:59:20.896Z,79.79
2019-04-27T05:00:20.865Z,80.13
2019-04-27T05:01:20.864Z,80.30
2019-04-27T05:02:20.861Z,79.79
2019-04-27T05:03:21.918Z,80.19
2019-04-27T05:04:20.828Z,80.30
2019-04-27T05:05:20.821Z,80.33
2019-04-27T05:06:20.799Z,80.09
2019-04-27T05:07:20.791Z,80.09
2019-04-27T05:08:20.798Z,80.19
2019-04-27T05:09:20.769Z,80.40
2019-04-27T05:10:20.778Z,80.30
2019-04-27T05:11:20.755Z,80.19
2019-04-27T05:12:20.740Z,80.19
2019-04-27T05:13:20.722Z,80.09
2019-04-27T05:14:20.711Z,80.40
2019-04-27T05:15:20.868Z,79.99
2019-04-27T05:16:20.699Z,79.89
2019-04-27T05:17:20.680Z,79.99
2019-04-27T05:18:20.664Z,79.64
2019-04-27T05:19:20.653Z,79.79
2019-04-27T05:20:24.692Z,79.85
2019-04-27T05:21:21.656Z,79.44
2019-04-27T05:22:20.622Z,79.64
2019-04-27T05:23:20.610Z,79.34
2019-04-27T05:24:20.598Z,80.05
2019-04-27T05:25:20.597Z,79.64
2019-04-27T05:26:20.849Z,80.16
2019-04-27T05:27:20.583Z,79.82
2019-04-27T05:28:20.558Z,79.30
2019-04-27T05:29:20.544Z,79.00
2019-04-27T05:30:20.538Z,79.00
2019-04-27T05:31:20.522Z,79.20
2019-04-27T05:32:20.725Z,79.30
2019-04-27T05:33:20.522Z,79.10
2019-04-27T05:34:20.491Z,79.00
2019-04-27T05:35:20.476Z,79.30
2019-04-27T05:36:20.467Z,78.96
2019-04-27T05:37:27.645Z,79.41
2019-04-27T05:38:21.463Z,78.89
2019-04-27T05:39:24.833Z,79.10
2019-04-27T05:40:21.418Z,79.41
2019-04-27T05:41:20.408Z,78.59
2019-04-27T05:42:20.397Z,79.24
2019-04-27T05:43:32.194Z,79.54
2019-04-27T05:44:20.791Z,79.50
2019-04-27T05:45:22.768Z,79.00
2019-04-27T05:46:20.361Z,79.10
2019-04-27T05:47:20.347Z,79.16
2019-04-27T05:48:27.370Z,78.34
2019-04-27T05:49:21.370Z,78.75
2019-04-27T05:50:22.011Z,77.63
2019-04-27T05:51:20.301Z,77.83
2019-04-27T05:52:20.288Z,77.94
2019-04-27T05:53:20.285Z,77.83
2019-04-27T05:54:20.266Z,77.63
2019-04-27T05:55:20.267Z,78.04
2019-04-27T05:56:21.619Z,78.24
2019-04-27T05:57:20.235Z,78.04
2019-04-27T05:58:20.226Z,78.24
2019-04-27T05:59:20.219Z,78.14
2019-04-27T06:00:20.241Z,78.45
2019-04-27T06:01:20.211Z,78.45
2019-04-27T06:02:20.362Z,78.65
2019-04-27T06:03:21.037Z,78.04
2019-04-27T06:04:20.179Z,78.14
2019-04-27T06:05:22.584Z,78.34
2019-04-27T06:06:20.160Z,78.14
2019-04-27T06:07:20.122Z,78.24
2019-04-27T06:08:21.074Z,78.20
2019-04-27T06:09:20.100Z,78.61
2019-04-27T06:10:20.087Z,78.31
2019-04-27T06:11:20.075Z,77.86
2019-04-27T06:12:20.089Z,76.70
2019-04-27T06:13:20.070Z,76.50
2019-04-27T06:14:20.041Z,76.74
2019-04-27T06:15:20.042Z,77.35
2019-04-27T06:16:20.040Z,77.11
2019-04-27T06:17:20.010Z,76.43
2019-04-27T06:18:20.755Z,77.15
2019-04-27T06:19:19.994Z,77.49
2019-04-27T06:20:19.976Z,77.90
2019-04-27T06:21:19.969Z,78.61
2019-04-27T06:22:19.953Z,79.88
2019-04-27T06:23:20.995Z,80.29
2019-04-27T06:24:19.931Z,80.29
2019-04-27T06:25:21.613Z,80.29
2019-04-27T06:26:20.260Z,80.69
2019-04-27T06:27:21.054Z,81.10
2019-04-27T06:28:19.906Z,81.41
2019-04-27T06:29:19.893Z,81.01
2019-04-27T06:30:19.900Z,81.72
2019-04-27T06:31:19.857Z,83.05
2019-04-27T06:32:19.840Z,82.43
2019-04-27T06:33:30.020Z,82.89
2019-04-27T06:34:20.856Z,83.05
2019-04-27T06:35:19.859Z,82.84
2019-04-27T06:36:20.038Z,82.75
2019-04-27T06:37:21.629Z,82.37
2019-04-27T06:38:19.779Z,82.37
2019-04-27T06:39:20.590Z,82.84
2019-04-27T06:40:19.751Z,82.68
2019-04-27T06:41:19.750Z,82.98
2019-04-27T06:42:20.794Z,83.05
2019-04-27T06:43:19.741Z,82.37
2019-04-27T06:44:19.775Z,82.78
2019-04-27T06:45:19.800Z,82.89
2019-04-27T06:46:20.032Z,82.57
2019-04-27T06:47:19.734Z,83.09
2019-04-27T06:48:19.676Z,82.27
2019-04-27T06:49:19.686Z,82.48
2019-04-27T06:50:19.678Z,83.09
2019-04-27T06:51:19.688Z,83.09
2019-04-27T06:52:19.641Z,82.48
2019-04-27T06:53:19.640Z,83.39
2019-04-27T06:54:21.371Z,82.57
2019-04-27T06:55:19.584Z,82.84
2019-04-27T06:56:19.591Z,81.45
2019-04-27T06:57:19.612Z,82.89
2019-04-27T06:58:20.136Z,83.36
2019-04-27T06:59:19.639Z,83.66
2019-04-27T07:00:19.573Z,84.17
2019-04-27T07:01:19.522Z,84.42
2019-04-27T07:02:19.554Z,83.76
2019-04-27T07:03:19.502Z,84.42
2019-04-27T07:04:19.707Z,83.97
2019-04-27T07:05:20.434Z,84.52
2019-04-27T07:06:19.484Z,84.58
2019-04-27T07:07:19.610Z,84.28
2019-04-27T07:08:19.548Z,84.42
2019-04-27T07:09:19.657Z,84.52
2019-04-27T07:10:19.455Z,84.01
2019-04-27T07:11:19.804Z,85.30
2019-04-27T07:12:19.401Z,84.38
2019-04-27T07:13:19.670Z,84.69
2019-04-27T07:14:19.833Z,84.83
2019-04-27T07:15:20.531Z,85.61
2019-04-27T07:16:19.701Z,84.83
2019-04-27T07:17:19.349Z,85.34
2019-04-27T07:18:19.333Z,86.36
2019-04-27T07:19:19.360Z,85.69
2019-04-27T07:20:19.309Z,85.58
2019-04-27T07:21:24.600Z,86.20
2019-04-27T07:22:20.324Z,86.88
2019-04-27T07:23:20.917Z,87.38
2019-04-27T07:24:19.681Z,87.59
2019-04-27T07:25:19.277Z,86.67
2019-04-27T07:26:21.241Z,87.08
2019-04-27T07:27:21.313Z,87.18
2019-04-27T07:28:19.220Z,87.08
2019-04-27T07:29:19.651Z,86.71
2019-04-27T07:30:19.242Z,86.81
2019-04-27T07:31:19.344Z,86.77
2019-04-27T07:32:19.375Z,87.08
2019-04-27T07:33:19.188Z,87.49
2019-04-27T07:34:19.175Z,86.46
2019-04-27T07:35:19.684Z,86.98
2019-04-27T07:36:19.144Z,87.08
2019-04-27T07:37:19.643Z,86.88
2019-04-27T07:38:19.273Z,86.77
2019-04-27T07:39:19.444Z,86.88
2019-04-27T07:40:19.114Z,86.98
2019-04-27T07:41:19.534Z,86.94
2019-04-27T07:42:20.798Z,87.45
2019-04-27T07:43:21.093Z,87.85
2019-04-27T07:44:19.362Z,87.35
2019-04-27T07:45:19.524Z,88.06
2019-04-27T07:46:19.024Z,86.77
2019-04-27T07:47:19.529Z,87.76
2019-04-27T07:48:19.016Z,87.14
2019-04-27T07:49:19.096Z,87.35
2019-04-27T07:50:19.443Z,87.04
2019-04-27T07:51:30.869Z,87.96
2019-04-27T07:52:20.496Z,87.85
2019-04-27T07:53:19.408Z,87.76
2019-04-27T07:54:19.043Z,88.57
2019-04-27T07:55:18.926Z,88.17
2019-04-27T07:56:19.139Z,88.94
2019-04-27T07:57:19.703Z,86.83
2019-04-27T07:58:21.928Z,87.24
2019-04-27T07:59:18.990Z,87.04
2019-04-27T08:00:19.121Z,86.73
2019-04-27T08:01:19.291Z,87.55
2019-04-27T08:02:19.140Z,86.53
2019-04-27T08:03:19.585Z,86.63
2019-04-27T08:04:18.915Z,86.43
2019-04-27T08:05:19.276Z,87.24
2019-04-27T08:06:19.031Z,87.35
2019-04-27T08:07:19.602Z,87.76
2019-04-27T08:08:19.070Z,87.55
2019-04-27T08:09:19.131Z,87.55
2019-04-27T08:10:19.358Z,87.96
2019-04-27T08:11:19.325Z,87.65
2019-04-27T08:12:20.672Z,88.53
2019-04-27T08:13:19.479Z,87.51
2019-04-27T08:14:18.714Z,86.94
2019-04-27T08:15:19.012Z,86.94
2019-04-27T08:16:20.642Z,86.59
2019-04-27T08:17:19.290Z,87.51
2019-04-27T08:18:19.020Z,87.82
2019-04-27T08:19:19.669Z,87.30
2019-04-27T08:20:19.236Z,86.69
2019-04-27T08:21:18.957Z,87.82
2019-04-27T08:22:19.460Z,88.29
2019-04-27T08:23:19.557Z,87.71
2019-04-27T08:24:19.432Z,86.59
2019-04-27T08:25:19.021Z,87.30
2019-04-27T08:26:18.753Z,87.92
2019-04-27T08:27:19.403Z,87.82
2019-04-27T08:28:18.797Z,87.10
2019-04-27T08:29:18.581Z,86.38
2019-04-27T08:30:19.433Z,87.24
2019-04-27T08:31:18.763Z,87.24
2019-04-27T08:32:19.594Z,87.96
2019-04-27T08:33:19.070Z,88.57
2019-04-27T08:34:18.507Z,87.45
2019-04-27T08:35:19.467Z,87.76
2019-04-27T08:36:19.045Z,88.26
2019-04-27T08:37:18.778Z,88.88
2019-04-27T08:38:19.035Z,88.57
2019-04-27T08:39:18.709Z,88.26
2019-04-27T08:40:19.304Z,88.47
2019-04-27T08:41:19.703Z,88.98
2019-04-27T08:42:19.447Z,88.37
2019-04-27T08:43:19.099Z,88.88
2019-04-27T08:44:19.388Z,88.57
2019-04-27T08:45:19.329Z,88.78
2019-04-27T08:46:18.703Z,89.39
2019-04-27T08:47:19.489Z,88.88
2019-04-27T08:48:33.501Z,89.59
2019-04-27T08:49:19.326Z,88.98
2019-04-27T08:50:19.065Z,89.50
2019-04-27T08:51:19.615Z,89.39
2019-04-27T08:52:19.370Z,89.39
2019-04-27T08:53:18.693Z,89.90
2019-04-27T08:54:19.260Z,89.80
2019-04-27T08:55:19.620Z,89.39
2019-04-27T08:56:19.359Z,89.50
2019-04-27T08:57:18.788Z,89.39
2019-04-27T08:58:21.085Z,88.78
2019-04-27T08:59:19.424Z,89.39
2019-04-27T09:00:19.308Z,90.41
2019-04-27T09:01:18.332Z,90.62
2019-04-27T09:02:19.600Z,90.72
2019-04-27T09:03:19.342Z,90.11
2019-04-27T09:04:20.064Z,90.82
2019-04-27T09:05:19.307Z,90.72
2019-04-27T09:06:18.997Z,90.36
2019-04-27T09:07:19.702Z,90.92
2019-04-27T09:08:18.941Z,90.66
2019-04-27T09:09:19.255Z,90.41
2019-04-27T09:10:18.782Z,90.82
2019-04-27T09:11:18.662Z,90.82
2019-04-27T09:12:19.628Z,92.15
2019-04-27T09:13:19.495Z,92.05
2019-04-27T09:14:19.291Z,91.95
2019-04-27T09:15:19.256Z,92.05
2019-04-27T09:16:18.617Z,91.54
2019-04-27T09:17:19.338Z,92.05
2019-04-27T09:18:19.194Z,91.74
2019-04-27T09:19:18.846Z,91.54
2019-04-27T09:20:18.667Z,91.85
2019-04-27T09:21:19.138Z,92.05
2019-04-27T09:22:19.267Z,91.23
2019-04-27T09:23:18.828Z,91.74
2019-04-27T09:24:18.812Z,92.15
2019-04-27T09:25:19.285Z,92.15
2019-04-27T09:26:18.581Z,91.74
2019-04-27T09:27:19.774Z,91.74
2019-04-27T09:28:17.920Z,91.54
2019-04-27T09:29:17.883Z,91.44
2019-04-27T09:30:19.105Z,91.85
2019-04-27T09:31:19.514Z,91.54
2019-04-27T09:32:19.125Z,92.46
2019-04-27T09:33:17.834Z,92.05
2019-04-27T09:34:18.925Z,91.74
2019-04-27T09:35:17.832Z,91.74
2019-04-27T09:36:17.801Z,91.44
2019-04-27T09:37:17.788Z,91.54
2019-04-27T09:38:18.490Z,92.15
2019-04-27T09:39:17.800Z,91.70
2019-04-27T09:40:17.757Z,92.56
2019-04-27T09:41:17.756Z,91.85
2019-04-27T09:42:17.730Z,91.80
2019-04-27T09:43:17.723Z,92.52
2019-04-27T09:44:17.724Z,92.52
2019-04-27T09:45:17.734Z,92.32
2019-04-27T09:46:17.700Z,92.62
2019-04-27T09:47:17.680Z,92.87
2019-04-27T09:48:17.724Z,92.62
2019-04-27T09:49:17.657Z,92.36
2019-04-27T09:50:17.644Z,92.66
2019-04-27T09:51:17.679Z,92.56
2019-04-27T09:52:24.370Z,92.46
2019-04-27T09:53:18.608Z,92.97
2019-04-27T09:54:17.597Z,92.56
2019-04-27T09:55:17.591Z,92.77
2019-04-27T09:56:17.574Z,92.56
2019-04-27T09:57:17.616Z,92.87
2019-04-27T09:58:18.457Z,92.66
2019-04-27T09:59:17.572Z,92.66
2019-04-27T10:00:17.531Z,93.69
2019-04-27T10:01:18.157Z,93.18
2019-04-27T10:02:17.507Z,93.59
2019-04-27T10:03:17.525Z,93.69
2019-04-27T10:04:17.610Z,92.66
2019-04-27T10:05:17.507Z,93.33
2019-04-27T10:06:17.466Z,93.65
2019-04-27T10:07:17.453Z,93.59
2019-04-27T10:08:17.445Z,93.79
2019-04-27T10:09:17.454Z,93.54
2019-04-27T10:10:17.419Z,94.10
2019-04-27T10:11:17.408Z,93.44
2019-04-27T10:12:17.433Z,93.69
2019-04-27T10:13:17.389Z,94.06
2019-04-27T10:14:17.373Z,93.65
2019-04-27T10:15:17.385Z,93.18
2019-04-27T10:16:17.367Z,93.48
2019-04-27T10:17:24.943Z,92.87
2019-04-27T10:18:26.521Z,92.66
2019-04-27T10:19:31.228Z,92.87
2019-04-27T10:21:31.101Z,93.65
2019-04-27T10:23:43.895Z,93.54
2019-04-27T10:24:51.439Z,93.44
2019-04-27T10:25:51.535Z,93.69
2019-04-27T10:26:44.154Z,94.15
2019-04-27T10:27:52.479Z,93.54
2019-04-27T10:28:51.454Z,92.66
2019-04-27T10:29:43.837Z,93.54
2019-04-27T10:30:45.677Z,93.48
2019-04-27T10:31:43.815Z,93.65
2019-04-27T10:32:43.801Z,93.59
2019-04-27T10:33:43.806Z,93.59
2019-04-27T10:34:43.776Z,93.69
2019-04-27T10:35:43.741Z,93.32
2019-04-27T10:36:43.734Z,94.10
2019-04-27T10:37:43.757Z,94.81
2019-04-27T10:38:43.785Z,94.34
2019-04-27T10:39:43.759Z,92.85
2019-04-27T10:40:43.700Z,91.93
2019-04-27T10:41:43.671Z,92.03
2019-04-27T10:42:43.669Z,92.49
2019-04-27T10:43:43.654Z,92.69
2019-04-27T10:44:43.662Z,92.49
2019-04-27T10:45:43.773Z,92.90
2019-04-27T10:46:43.646Z,92.49
2019-04-27T10:47:43.619Z,93.82
2019-04-27T10:48:43.640Z,93.62
2019-04-27T10:49:43.611Z,94.23
2019-04-27T10:50:43.619Z,94.74
2019-04-27T10:51:43.569Z,94.54
2019-04-27T10:52:53.426Z,95.15
2019-04-27T10:53:45.698Z,94.59
2019-04-27T10:54:43.554Z,94.49
2019-04-27T10:55:43.575Z,95.37
2019-04-27T10:56:43.577Z,94.96
2019-04-27T10:57:43.540Z,94.85
2019-04-27T10:58:43.489Z,94.55
2019-04-27T10:59:43.473Z,94.65
2019-04-27T11:00:43.501Z,94.34
2019-04-27T11:01:43.448Z,93.84
2019-04-27T11:02:43.454Z,93.73
2019-04-27T11:03:43.475Z,92.50
2019-04-27T11:04:43.423Z,92.81
2019-04-27T11:05:43.403Z,92.91
2019-04-27T11:06:43.393Z,92.66
2019-04-27T11:07:43.379Z,92.19
2019-04-27T11:08:43.390Z,90.56
2019-04-27T11:09:43.380Z,90.31
2019-04-27T11:10:43.348Z,91.64
2019-04-27T11:11:43.337Z,90.72
2019-04-27T11:12:43.331Z,89.23
2019-04-27T11:13:43.329Z,88.57
2019-04-27T11:14:43.307Z,89.70
2019-04-27T11:15:43.312Z,89.29
2019-04-27T11:16:43.281Z,86.63
2019-04-27T11:17:43.294Z,88.26
2019-04-27T11:18:43.319Z,87.65
2019-04-27T11:19:43.254Z,88.47
2019-04-27T11:20:43.260Z,88.98
2019-04-27T11:21:43.224Z,89.80
2019-04-27T11:22:43.261Z,87.35
2019-04-27T11:23:43.231Z,86.63
2019-04-27T11:24:43.195Z,88.26
2019-04-27T11:25:43.177Z,88.78
2019-04-27T11:26:43.207Z,88.57
2019-04-27T11:27:43.159Z,87.85
2019-04-27T11:28:43.161Z,87.96
2019-04-27T11:29:43.167Z,87.45
2019-04-27T11:30:43.124Z,87.76
2019-04-27T11:31:43.114Z,86.94
2019-04-27T11:32:43.106Z,87.85
2019-04-27T11:33:43.090Z,88.57
2019-04-27T11:34:43.107Z,88.98
2019-04-27T11:35:43.121Z,89.18
2019-04-27T11:36:43.065Z,87.14
2019-04-27T11:37:43.050Z,86.43
2019-04-27T11:38:43.034Z,86.43
2019-04-27T11:39:43.019Z,85.81
2019-04-27T11:40:43.037Z,86.02
2019-04-27T11:41:43.010Z,87.24
2019-04-27T11:42:42.999Z,84.38
2019-04-27T11:43:43.008Z,85.20
2019-04-27T11:44:42.975Z,82.98
2019-04-27T11:45:42.971Z,83.25
2019-04-27T11:46:42.968Z,84.38
2019-04-27T11:47:42.950Z,84.99
2019-04-27T11:48:42.926Z,84.17
2019-04-27T11:49:42.915Z,84.58
2019-04-27T11:50:42.928Z,82.95
2019-04-27T11:51:42.905Z,80.08
2019-04-27T11:52:42.878Z,82.54
2019-04-27T11:53:42.886Z,82.34
2019-04-27T11:54:42.858Z,82.64
2019-04-27T11:55:42.910Z,79.16
2019-04-27T11:56:42.849Z,78.75
2019-04-27T11:57:42.919Z,78.92
2019-04-27T11:58:43.305Z,79.53
2019-04-27T11:59:42.803Z,79.23
2019-04-27T12:00:42.807Z,79.43
2019-04-27T12:01:43.846Z,80.62
2019-04-27T12:02:43.046Z,79.60
2019-04-27T12:03:42.757Z,77.66
2019-04-27T12:04:42.747Z,76.06
2019-04-27T12:05:42.793Z,78.00
2019-04-27T12:06:42.734Z,75.96
2019-04-27T12:07:42.720Z,78.27
2019-04-27T12:08:42.760Z,78.07
2019-04-27T12:09:42.685Z,78.68
2019-04-27T12:10:42.697Z,77.66
2019-04-27T12:11:42.673Z,77.97
2019-04-27T12:12:42.650Z,75.21
2019-04-27T12:13:42.665Z,73.40
2019-04-27T12:14:42.627Z,72.89
2019-04-27T12:15:42.612Z,73.20
2019-04-27T12:16:42.606Z,75.24
2019-04-27T12:17:42.596Z,73.61
2019-04-27T12:18:42.609Z,71.25
2019-04-27T12:19:42.584Z,73.68
2019-04-27T12:20:42.558Z,71.87
2019-04-27T12:21:42.557Z,73.10
2019-04-27T12:22:42.534Z,70.30
2019-04-27T12:23:42.533Z,70.75
2019-04-27T12:24:42.546Z,69.62
2019-04-27T12:25:42.508Z,70.00
2019-04-27T12:26:42.526Z,70.81
2019-04-27T12:27:42.483Z,71.63
2019-04-27T12:28:42.474Z,72.96
2019-04-27T12:29:43.192Z,73.06
2019-04-27T12:30:42.458Z,73.27
2019-04-27T12:31:44.914Z,73.57
2019-04-27T12:32:42.443Z,73.06
2019-04-27T12:33:42.426Z,76.23
2019-04-27T12:34:42.401Z,76.26
2019-04-27T12:35:42.796Z,78.07
2019-04-27T12:36:42.378Z,73.06
2019-04-27T12:37:42.365Z,72.48
2019-04-27T12:38:42.403Z,73.13
2019-04-27T12:39:42.343Z,72.31
2019-04-27T12:40:42.331Z,72.92
2019-04-27T12:41:42.353Z,73.44
2019-04-27T12:42:42.314Z,73.23
2019-04-27T12:43:42.302Z,71.70
2019-04-27T12:44:42.622Z,70.67
2019-04-27T12:45:43.746Z,72.92
2019-04-27T12:46:42.394Z,71.70
2019-04-27T12:47:42.252Z,72.58
2019-04-27T12:48:42.242Z,73.40
2019-04-27T12:49:42.238Z,72.75
2019-04-27T12:50:42.231Z,71.63
2019-04-27T12:51:42.209Z,73.33
2019-04-27T12:52:42.212Z,75.07
2019-04-27T12:53:50.664Z,73.33
2019-04-27T12:54:43.169Z,71.56